createdAt,value
2023-09-09T00:00:49.809Z,1014.09
2023-09-09T00:01:49.882Z,1014.11
2023-09-09T00:02:49.948Z,1014.10
2023-09-09T00:03:50.128Z,1014.12
2023-09-09T00:04:49.812Z,1014.10
2023-09-09T00:05:49.749Z,1014.07
2023-09-09T00:06:49.775Z,1014.10
2023-09-09T00:07:49.747Z,1014.08
2023-09-09T00:08:49.688Z,1014.10
2023-09-09T00:09:49.731Z,1014.12
2023-09-09T00:10:49.677Z,1014.11
2023-09-09T00:11:49.661Z,1014.10
2023-09-09T00:12:49.682Z,1014.14
2023-09-09T00:13:49.650Z,1014.14
2023-09-09T00:14:49.690Z,1014.14
2023-09-09T00:15:49.656Z,1014.15
2023-09-09T00:16:49.633Z,1014.13
2023-09-09T00:17:49.650Z,1014.12
2023-09-09T00:18:49.579Z,1014.14
2023-09-09T00:19:49.559Z,1014.15
2023-09-09T00:20:49.549Z,1014.14
2023-09-09T00:21:49.529Z,1014.13
2023-09-09T00:22:49.554Z,1014.13
2023-09-09T00:23:49.492Z,1014.16
2023-09-09T00:24:49.473Z,1014.09
2023-09-09T00:25:58.174Z,1014.11
2023-09-09T00:26:49.493Z,1014.15
2023-09-09T00:27:49.440Z,1014.11
2023-09-09T00:28:49.493Z,1014.10
2023-09-09T00:29:49.437Z,1014.10
2023-09-09T00:30:49.520Z,1014.09
2023-09-09T00:31:49.456Z,1014.07
2023-09-09T00:32:49.397Z,1014.05
2023-09-09T00:33:49.481Z,1014.03
2023-09-09T00:34:49.368Z,1013.99
2023-09-09T00:35:49.419Z,1014.02
2023-09-09T00:36:49.332Z,1014.01
2023-09-09T00:37:49.423Z,1014.04
2023-09-09T00:38:49.300Z,1014.02
2023-09-09T00:39:49.338Z,1014.00
2023-09-09T00:40:49.275Z,1013.99
2023-09-09T00:41:49.304Z,1014.01
2023-09-09T00:42:49.230Z,1014.00
2023-09-09T00:43:49.244Z,1013.95
2023-09-09T00:44:49.214Z,1013.97
2023-09-09T00:45:49.269Z,1013.98
2023-09-09T00:46:49.243Z,1013.96
2023-09-09T00:47:49.249Z,1013.97
2023-09-09T00:48:49.220Z,1013.96
2023-09-09T00:49:49.194Z,1013.98
2023-09-09T00:50:49.149Z,1013.92
2023-09-09T00:51:49.194Z,1013.95
2023-09-09T00:52:49.115Z,1013.92
2023-09-09T00:53:49.117Z,1013.96
2023-09-09T00:54:49.164Z,1013.93
2023-09-09T00:55:49.085Z,1013.92
2023-09-09T00:56:49.100Z,1013.91
2023-09-09T00:57:49.088Z,1013.90
2023-09-09T00:58:49.062Z,1013.90
2023-09-09T00:59:49.084Z,1013.89
2023-09-09T01:00:49.025Z,1013.91
2023-09-09T01:01:49.096Z,1013.90
2023-09-09T01:02:49.148Z,1013.90
2023-09-09T01:03:49.083Z,1013.89
2023-09-09T01:04:48.977Z,1013.87
2023-09-09T01:05:48.988Z,1013.88
2023-09-09T01:06:48.961Z,1013.87
2023-09-09T01:07:49.057Z,1013.87
2023-09-09T01:08:48.931Z,1013.88
2023-09-09T01:09:48.972Z,1013.86
2023-09-09T01:10:48.886Z,1013.90
2023-09-09T01:11:48.899Z,1013.91
2023-09-09T01:12:48.867Z,1013.90
2023-09-09T01:13:48.928Z,1013.88
2023-09-09T01:14:48.966Z,1013.87
2023-09-09T01:15:48.863Z,1013.90
2023-09-09T01:16:48.790Z,1013.90
2023-09-09T01:17:48.815Z,1013.90
2023-09-09T01:18:48.801Z,1013.91
2023-09-09T01:19:48.784Z,1013.87
2023-09-09T01:20:48.756Z,1013.87
2023-09-09T01:21:48.829Z,1013.85
2023-09-09T01:22:48.703Z,1013.85
2023-09-09T01:23:48.762Z,1013.85
2023-09-09T01:24:48.683Z,1013.83
2023-09-09T01:25:48.678Z,1013.83
2023-09-09T01:26:48.661Z,1013.86
2023-09-09T01:27:48.700Z,1013.86
2023-09-09T01:28:48.666Z,1013.84
2023-09-09T01:29:48.698Z,1013.88
2023-09-09T01:30:48.629Z,1013.92
2023-09-09T01:31:48.679Z,1013.91
2023-09-09T01:32:48.635Z,1013.88
2023-09-09T01:33:48.621Z,1013.86
2023-09-09T01:34:48.587Z,1013.94
2023-09-09T01:35:48.606Z,1013.92
2023-09-09T01:36:48.522Z,1013.90
2023-09-09T01:37:48.572Z,1013.94
2023-09-09T01:38:48.504Z,1013.93
2023-09-09T01:39:48.543Z,1013.94
2023-09-09T01:40:48.579Z,1013.95
2023-09-09T01:41:48.454Z,1013.93
2023-09-09T01:42:48.475Z,1013.93
2023-09-09T01:43:48.484Z,1013.92
2023-09-09T01:44:48.451Z,1013.91
2023-09-09T01:45:48.445Z,1013.92
2023-09-09T01:46:48.467Z,1013.92
2023-09-09T01:47:48.431Z,1013.94
2023-09-09T01:48:48.358Z,1013.88
2023-09-09T01:49:48.371Z,1013.90
2023-09-09T01:50:48.354Z,1013.92
2023-09-09T01:51:48.365Z,1013.90
2023-09-09T01:52:48.331Z,1013.93
2023-09-09T01:53:48.301Z,1013.94
2023-09-09T01:54:48.279Z,1013.90
2023-09-09T01:55:48.326Z,1013.90
2023-09-09T01:56:48.270Z,1013.90
2023-09-09T01:57:48.236Z,1013.93
2023-09-09T01:58:48.236Z,1013.91
2023-09-09T01:59:48.259Z,1013.92
2023-09-09T02:00:48.195Z,1013.87
2023-09-09T02:01:48.225Z,1013.87
2023-09-09T02:02:48.234Z,1013.89
2023-09-09T02:03:48.225Z,1013.88
2023-09-09T02:04:48.165Z,1013.89
2023-09-09T02:05:48.160Z,1013.90
2023-09-09T02:06:48.145Z,1013.91
2023-09-09T02:07:48.120Z,1013.90
2023-09-09T02:08:48.090Z,1013.90
2023-09-09T02:09:48.115Z,1013.87
2023-09-09T02:10:48.074Z,1013.94
2023-09-09T02:11:48.081Z,1013.89
2023-09-09T02:12:48.054Z,1013.92
2023-09-09T02:13:48.070Z,1013.89
2023-09-09T02:14:48.030Z,1013.88
2023-09-09T02:15:48.063Z,1013.89
2023-09-09T02:16:48.027Z,1013.90
2023-09-09T02:17:48.024Z,1013.91
2023-09-09T02:18:48.001Z,1013.92
2023-09-09T02:19:47.989Z,1013.88
2023-09-09T02:20:47.943Z,1013.90
2023-09-09T02:21:47.938Z,1013.87
2023-09-09T02:22:47.920Z,1013.84
2023-09-09T02:23:47.914Z,1013.84
2023-09-09T02:24:47.899Z,1013.85
2023-09-09T02:25:47.941Z,1013.89
2023-09-09T02:26:47.863Z,1013.86
2023-09-09T02:27:47.848Z,1013.84
2023-09-09T02:28:47.844Z,1013.82
2023-09-09T02:29:47.830Z,1013.80
2023-09-09T02:30:47.822Z,1013.78
2023-09-09T02:31:47.853Z,1013.80
2023-09-09T02:32:47.843Z,1013.79
2023-09-09T02:33:47.800Z,1013.78
2023-09-09T02:34:47.785Z,1013.79
2023-09-09T02:35:47.809Z,1013.80
2023-09-09T02:36:47.773Z,1013.79
2023-09-09T02:37:47.696Z,1013.79
2023-09-09T02:38:47.699Z,1013.80
2023-09-09T02:39:47.709Z,1013.77
2023-09-09T02:40:47.690Z,1013.75
2023-09-09T02:41:47.739Z,1013.75
2023-09-09T02:42:47.665Z,1013.74
2023-09-09T02:43:47.682Z,1013.72
2023-09-09T02:44:47.659Z,1013.68
2023-09-09T02:45:47.624Z,1013.65
2023-09-09T02:46:47.656Z,1013.68
2023-09-09T02:47:47.588Z,1013.69
2023-09-09T02:48:47.568Z,1013.67
2023-09-09T02:49:47.567Z,1013.68
2023-09-09T02:50:47.564Z,1013.71
2023-09-09T02:51:47.568Z,1013.70
2023-09-09T02:52:47.573Z,1013.69
2023-09-09T02:53:47.492Z,1013.70
2023-09-09T02:54:47.485Z,1013.70
2023-09-09T02:55:47.523Z,1013.74
2023-09-09T02:56:47.453Z,1013.71
2023-09-09T02:57:47.456Z,1013.74
2023-09-09T02:58:47.440Z,1013.75
2023-09-09T02:59:47.402Z,1013.77
2023-09-09T03:00:47.417Z,1013.78
2023-09-09T03:01:47.365Z,1013.77
2023-09-09T03:02:47.418Z,1013.76
2023-09-09T03:03:47.416Z,1013.79
2023-09-09T03:04:47.380Z,1013.77
2023-09-09T03:05:47.341Z,1013.76
2023-09-09T03:06:47.406Z,1013.77
2023-09-09T03:07:47.327Z,1013.77
2023-09-09T03:08:47.305Z,1013.82
2023-09-09T03:09:47.345Z,1013.79
2023-09-09T03:10:47.291Z,1013.81
2023-09-09T03:11:47.307Z,1013.81
2023-09-09T03:12:47.262Z,1013.81
2023-09-09T03:13:47.344Z,1013.77
2023-09-09T03:14:47.198Z,1013.82
2023-09-09T03:15:47.218Z,1013.79
2023-09-09T03:16:47.283Z,1013.82
2023-09-09T03:17:47.226Z,1013.80
2023-09-09T03:18:47.211Z,1013.82
2023-09-09T03:19:47.137Z,1013.81
2023-09-09T03:20:47.222Z,1013.84
2023-09-09T03:21:47.160Z,1013.82
2023-09-09T03:22:47.148Z,1013.86
2023-09-09T03:23:47.089Z,1013.88
2023-09-09T03:24:47.082Z,1013.87
2023-09-09T03:25:47.102Z,1013.85
2023-09-09T03:26:47.138Z,1013.85
2023-09-09T03:27:47.053Z,1013.88
2023-09-09T03:28:47.029Z,1013.89
2023-09-09T03:29:47.036Z,1013.91
2023-09-09T03:30:47.004Z,1013.90
2023-09-09T03:31:47.002Z,1013.90
2023-09-09T03:32:47.095Z,1013.89
2023-09-09T03:33:46.980Z,1013.92
2023-09-09T03:34:46.978Z,1013.87
2023-09-09T03:35:46.920Z,1013.89
2023-09-09T03:36:46.964Z,1013.87
2023-09-09T03:37:46.900Z,1013.90
2023-09-09T03:38:46.919Z,1013.87
2023-09-09T03:39:46.909Z,1013.87
2023-09-09T03:40:46.874Z,1013.90
2023-09-09T03:41:46.869Z,1013.84
2023-09-09T03:42:46.863Z,1013.90
2023-09-09T03:43:46.881Z,1013.86
2023-09-09T03:44:46.823Z,1013.89
2023-09-09T03:45:46.857Z,1013.91
2023-09-09T03:46:46.828Z,1013.90
2023-09-09T03:47:46.859Z,1013.89
2023-09-09T03:48:46.804Z,1013.88
2023-09-09T03:49:46.735Z,1013.91
2023-09-09T03:50:46.741Z,1013.93
2023-09-09T03:51:46.751Z,1013.92
2023-09-09T03:52:46.738Z,1013.92
2023-09-09T03:53:46.669Z,1013.92
2023-09-09T03:54:46.693Z,1013.92
2023-09-09T03:55:46.742Z,1013.94
2023-09-09T03:56:46.655Z,1013.93
2023-09-09T03:57:46.678Z,1013.95
2023-09-09T03:58:46.628Z,1013.98
2023-09-09T03:59:47.294Z,1013.94
2023-09-09T04:00:46.652Z,1013.93
2023-09-09T04:01:46.665Z,1013.94
2023-09-09T04:02:46.633Z,1013.94
2023-09-09T04:03:46.854Z,1013.93
2023-09-09T04:04:46.557Z,1013.96
2023-09-09T04:05:46.533Z,1013.96
2023-09-09T04:06:46.548Z,1013.93
2023-09-09T04:07:46.566Z,1013.92
2023-09-09T04:08:46.566Z,1013.91
2023-09-09T04:09:46.499Z,1013.93
2023-09-09T04:10:46.479Z,1013.96
2023-09-09T04:11:46.508Z,1013.90
2023-09-09T04:12:46.430Z,1013.91
2023-09-09T04:13:46.466Z,1013.91
2023-09-09T04:14:46.467Z,1013.94
2023-09-09T04:15:46.430Z,1013.93
2023-09-09T04:16:46.484Z,1013.92
2023-09-09T04:17:46.428Z,1013.94
2023-09-09T04:18:47.402Z,1013.92
2023-09-09T04:19:46.423Z,1013.95
2023-09-09T04:20:46.360Z,1013.96
2023-09-09T04:21:46.346Z,1013.96
2023-09-09T04:22:46.301Z,1013.97
2023-09-09T04:23:46.296Z,1013.99
2023-09-09T04:24:46.367Z,1014.00
2023-09-09T04:25:46.270Z,1014.00
2023-09-09T04:26:46.255Z,1014.04
2023-09-09T04:27:46.253Z,1014.00
2023-09-09T04:28:46.223Z,1014.01
2023-09-09T04:29:46.238Z,1014.02
2023-09-09T04:30:46.233Z,1013.99
2023-09-09T04:31:46.207Z,1014.00
2023-09-09T04:32:46.248Z,1013.98
2023-09-09T04:33:46.147Z,1013.99
2023-09-09T04:34:46.212Z,1014.00
2023-09-09T04:35:46.217Z,1013.98
2023-09-09T04:36:46.116Z,1014.00
2023-09-09T04:37:46.118Z,1014.01
2023-09-09T04:38:46.112Z,1013.97
2023-09-09T04:39:46.078Z,1014.03
2023-09-09T04:40:46.052Z,1014.04
2023-09-09T04:41:46.099Z,1014.00
2023-09-09T04:42:46.067Z,1014.03
2023-09-09T04:43:46.008Z,1014.03
2023-09-09T04:44:45.992Z,1014.02
2023-09-09T04:45:46.065Z,1014.07
2023-09-09T04:46:46.017Z,1014.06
2023-09-09T04:47:46.059Z,1014.05
2023-09-09T04:48:45.959Z,1014.09
2023-09-09T04:49:45.949Z,1014.10
2023-09-09T04:50:45.975Z,1014.09
2023-09-09T04:51:45.938Z,1014.07
2023-09-09T04:52:45.892Z,1014.10
2023-09-09T04:53:45.906Z,1014.05
2023-09-09T04:54:45.940Z,1014.07
2023-09-09T04:55:45.853Z,1014.07
2023-09-09T04:56:45.868Z,1014.10
2023-09-09T04:57:45.866Z,1014.10
2023-09-09T04:58:45.870Z,1014.11
2023-09-09T04:59:45.853Z,1014.11
2023-09-09T05:00:45.814Z,1014.15
2023-09-09T05:01:45.887Z,1014.12
2023-09-09T05:02:45.850Z,1014.12
2023-09-09T05:03:45.787Z,1014.15
2023-09-09T05:04:45.772Z,1014.15
2023-09-09T05:05:45.753Z,1014.15
2023-09-09T05:06:45.753Z,1014.16
2023-09-09T05:07:45.680Z,1014.11
2023-09-09T05:08:45.690Z,1014.13
2023-09-09T05:09:45.718Z,1014.10
2023-09-09T05:10:45.730Z,1014.12
2023-09-09T05:11:45.666Z,1014.15
2023-09-09T05:12:46.805Z,1014.17
2023-09-09T05:13:45.616Z,1014.17
2023-09-09T05:14:45.614Z,1014.21
2023-09-09T05:15:45.595Z,1014.17
2023-09-09T05:16:45.625Z,1014.18
2023-09-09T05:17:45.596Z,1014.21
2023-09-09T05:18:45.636Z,1014.21
2023-09-09T05:19:45.701Z,1014.21
2023-09-09T05:20:45.562Z,1014.23
2023-09-09T05:21:45.529Z,1014.22
2023-09-09T05:22:45.510Z,1014.27
2023-09-09T05:23:45.506Z,1014.23
2023-09-09T05:24:45.513Z,1014.25
2023-09-09T05:25:45.466Z,1014.23
2023-09-09T05:26:45.444Z,1014.24
2023-09-09T05:27:45.453Z,1014.23
2023-09-09T05:28:45.438Z,1014.22
2023-09-09T05:29:45.408Z,1014.28
2023-09-09T05:30:45.372Z,1014.24
2023-09-09T05:31:45.408Z,1014.26
2023-09-09T05:32:45.378Z,1014.28
2023-09-09T05:33:45.368Z,1014.27
2023-09-09T05:34:45.378Z,1014.27
2023-09-09T05:35:45.354Z,1014.31
2023-09-09T05:36:45.312Z,1014.29
2023-09-09T05:37:45.307Z,1014.29
2023-09-09T05:38:45.290Z,1014.29
2023-09-09T05:39:45.277Z,1014.31
2023-09-09T05:40:45.298Z,1014.32
2023-09-09T05:41:45.309Z,1014.31
2023-09-09T05:42:45.363Z,1014.30
2023-09-09T05:43:45.231Z,1014.33
2023-09-09T05:44:45.230Z,1014.34
2023-09-09T05:45:45.202Z,1014.29
2023-09-09T05:46:45.201Z,1014.32
2023-09-09T05:47:45.253Z,1014.33
2023-09-09T05:48:45.172Z,1014.34
2023-09-09T05:49:45.188Z,1014.36
2023-09-09T05:50:45.214Z,1014.34
2023-09-09T05:51:45.266Z,1014.37
2023-09-09T05:52:45.295Z,1014.35
2023-09-09T05:53:49.500Z,1014.36
2023-09-09T05:54:45.068Z,1014.38
2023-09-09T05:55:45.076Z,1014.39
2023-09-09T05:56:45.645Z,1014.38
2023-09-09T05:57:46.028Z,1014.39
2023-09-09T05:58:45.293Z,1014.40
2023-09-09T05:59:45.104Z,1014.41
2023-09-09T06:00:45.184Z,1014.40
2023-09-09T06:01:45.389Z,1014.39
2023-09-09T06:02:45.075Z,1014.39
2023-09-09T06:03:45.150Z,1014.35
2023-09-09T06:04:45.051Z,1014.39
2023-09-09T06:05:45.132Z,1014.41
2023-09-09T06:06:44.949Z,1014.42
2023-09-09T06:07:44.901Z,1014.42
2023-09-09T06:08:44.872Z,1014.40
2023-09-09T06:09:44.913Z,1014.41
2023-09-09T06:10:45.032Z,1014.42
2023-09-09T06:11:44.900Z,1014.44
2023-09-09T06:12:44.922Z,1014.44
2023-09-09T06:13:44.834Z,1014.48
2023-09-09T06:14:44.798Z,1014.49
2023-09-09T06:15:44.872Z,1014.50
2023-09-09T06:16:44.782Z,1014.51
2023-09-09T06:17:44.824Z,1014.53
2023-09-09T06:18:44.780Z,1014.50
2023-09-09T06:19:44.798Z,1014.54
2023-09-09T06:20:44.778Z,1014.51
2023-09-09T06:21:44.714Z,1014.47
2023-09-09T06:22:44.740Z,1014.48
2023-09-09T06:23:44.679Z,1014.49
2023-09-09T06:24:44.693Z,1014.48
2023-09-09T06:25:44.693Z,1014.46
2023-09-09T06:26:44.662Z,1014.49
2023-09-09T06:27:44.632Z,1014.53
2023-09-09T06:28:44.748Z,1014.52
2023-09-09T06:29:44.710Z,1014.52
2023-09-09T06:30:44.849Z,1014.53
2023-09-09T06:31:44.652Z,1014.54
2023-09-09T06:32:44.659Z,1014.54
2023-09-09T06:33:45.623Z,1014.61
2023-09-09T06:34:44.819Z,1014.56
2023-09-09T06:35:45.026Z,1014.60
2023-09-09T06:36:44.776Z,1014.59
2023-09-09T06:37:44.867Z,1014.58
2023-09-09T06:38:44.486Z,1014.55
2023-09-09T06:39:44.493Z,1014.56
2023-09-09T06:40:44.449Z,1014.58
2023-09-09T06:41:44.451Z,1014.56
2023-09-09T06:42:44.423Z,1014.58
2023-09-09T06:43:44.501Z,1014.62
2023-09-09T06:44:44.575Z,1014.63
2023-09-09T06:45:44.421Z,1014.66
2023-09-09T06:46:44.428Z,1014.66
2023-09-09T06:47:44.492Z,1014.65
2023-09-09T06:48:44.364Z,1014.62
2023-09-09T06:49:44.615Z,1014.61
2023-09-09T06:50:44.891Z,1014.65
2023-09-09T06:51:44.436Z,1014.68
2023-09-09T06:52:46.356Z,1014.70
2023-09-09T06:54:07.279Z,1014.64
2023-09-09T06:54:44.506Z,1014.64
2023-09-09T06:55:47.347Z,1014.63
2023-09-09T06:56:45.318Z,1014.64
2023-09-09T06:57:45.410Z,1014.67
2023-09-09T06:58:44.812Z,1014.69
2023-09-09T06:59:44.352Z,1014.65
2023-09-09T07:00:44.358Z,1014.68
2023-09-09T07:01:44.184Z,1014.71
2023-09-09T07:02:44.926Z,1014.69
2023-09-09T07:03:44.230Z,1014.69
2023-09-09T07:04:44.220Z,1014.67
2023-09-09T07:05:44.100Z,1014.70
2023-09-09T07:06:55.997Z,1014.66
2023-09-09T07:07:45.134Z,1014.66
2023-09-09T07:08:44.098Z,1014.65
2023-09-09T07:09:44.069Z,1014.65
2023-09-09T07:10:44.076Z,1014.66
2023-09-09T07:11:44.039Z,1014.69
2023-09-09T07:12:44.059Z,1014.67
2023-09-09T07:13:43.993Z,1014.70
2023-09-09T07:14:43.985Z,1014.71
2023-09-09T07:15:44.023Z,1014.71
2023-09-09T07:16:44.018Z,1014.74
2023-09-09T07:17:44.006Z,1014.70
2023-09-09T07:18:44.058Z,1014.72
2023-09-09T07:19:43.963Z,1014.78
2023-09-09T07:20:43.944Z,1014.76
2023-09-09T07:21:43.903Z,1014.77
2023-09-09T07:22:43.930Z,1014.75
2023-09-09T07:23:43.874Z,1014.75
2023-09-09T07:24:43.848Z,1014.75
2023-09-09T07:25:43.911Z,1014.77
2023-09-09T07:26:43.863Z,1014.76
2023-09-09T07:27:43.853Z,1014.72
2023-09-09T07:28:43.851Z,1014.75
2023-09-09T07:29:43.915Z,1014.74
2023-09-09T07:30:43.843Z,1014.72
2023-09-09T07:31:43.850Z,1014.72
2023-09-09T07:32:43.781Z,1014.72
2023-09-09T07:33:44.059Z,1014.73
2023-09-09T07:34:43.767Z,1014.70
2023-09-09T07:35:43.820Z,1014.71
2023-09-09T07:36:43.726Z,1014.71
2023-09-09T07:37:43.750Z,1014.70
2023-09-09T07:38:43.680Z,1014.67
2023-09-09T07:39:43.693Z,1014.66
2023-09-09T07:40:43.674Z,1014.67
2023-09-09T07:41:43.758Z,1014.68
2023-09-09T07:42:43.677Z,1014.68
2023-09-09T07:43:43.820Z,1014.70
2023-09-09T07:44:43.596Z,1014.67
2023-09-09T07:45:43.663Z,1014.70
2023-09-09T07:46:43.573Z,1014.69
2023-09-09T07:47:43.604Z,1014.73
2023-09-09T07:48:43.629Z,1014.72
2023-09-09T07:49:43.543Z,1014.71
2023-09-09T07:50:43.641Z,1014.72
2023-09-09T07:51:43.522Z,1014.71
2023-09-09T07:52:43.487Z,1014.72
2023-09-09T07:53:43.489Z,1014.70
2023-09-09T07:54:43.486Z,1014.68
2023-09-09T07:55:44.479Z,1014.69
2023-09-09T07:56:43.518Z,1014.70
2023-09-09T07:57:43.440Z,1014.68
2023-09-09T07:58:43.937Z,1014.74
2023-09-09T07:59:43.695Z,1014.71
2023-09-09T08:00:43.457Z,1014.72
2023-09-09T08:01:43.429Z,1014.70
2023-09-09T08:02:43.464Z,1014.69
2023-09-09T08:03:43.641Z,1014.72
2023-09-09T08:04:43.368Z,1014.73
2023-09-09T08:05:43.342Z,1014.75
2023-09-09T08:06:43.401Z,1014.74
2023-09-09T08:07:43.300Z,1014.75
2023-09-09T08:08:43.285Z,1014.77
2023-09-09T08:09:43.292Z,1014.77
2023-09-09T08:10:43.296Z,1014.77
2023-09-09T08:11:43.223Z,1014.75
2023-09-09T08:12:43.264Z,1014.76
2023-09-09T08:13:43.225Z,1014.78
2023-09-09T08:14:43.232Z,1014.75
2023-09-09T08:15:43.492Z,1014.73
2023-09-09T08:16:43.281Z,1014.72
2023-09-09T08:17:43.166Z,1014.73
2023-09-09T08:18:43.464Z,1014.73
2023-09-09T08:19:43.247Z,1014.80
2023-09-09T08:20:43.163Z,1014.77
2023-09-09T08:21:43.215Z,1014.74
2023-09-09T08:22:43.217Z,1014.76
2023-09-09T08:23:43.149Z,1014.76
2023-09-09T08:24:43.215Z,1014.78
2023-09-09T08:25:43.185Z,1014.77
2023-09-09T08:26:43.125Z,1014.76
2023-09-09T08:27:43.055Z,1014.80
2023-09-09T08:28:43.103Z,1014.72
2023-09-09T08:29:43.035Z,1014.74
2023-09-09T08:30:43.065Z,1014.77
2023-09-09T08:31:43.110Z,1014.74
2023-09-09T08:32:43.052Z,1014.76
2023-09-09T08:33:42.961Z,1014.77
2023-09-09T08:34:42.996Z,1014.78
2023-09-09T08:35:42.955Z,1014.78
2023-09-09T08:36:42.947Z,1014.80
2023-09-09T08:37:42.924Z,1014.76
2023-09-09T08:38:42.977Z,1014.77
2023-09-09T08:39:42.968Z,1014.78
2023-09-09T08:40:43.084Z,1014.76
2023-09-09T08:41:42.943Z,1014.76
2023-09-09T08:42:42.891Z,1014.79
2023-09-09T08:43:42.836Z,1014.82
2023-09-09T08:44:42.863Z,1014.79
2023-09-09T08:45:42.864Z,1014.77
2023-09-09T08:46:42.813Z,1014.80
2023-09-09T08:47:42.939Z,1014.80
2023-09-09T08:48:42.756Z,1014.83
2023-09-09T08:49:42.731Z,1014.83
2023-09-09T08:50:42.752Z,1014.83
2023-09-09T08:51:42.754Z,1014.84
2023-09-09T08:52:42.793Z,1014.84
2023-09-09T08:53:42.728Z,1014.82
2023-09-09T08:54:42.669Z,1014.84
2023-09-09T08:55:44.024Z,1014.87
2023-09-09T08:56:42.702Z,1014.86
2023-09-09T08:57:42.720Z,1014.84
2023-09-09T08:58:42.768Z,1014.83
2023-09-09T08:59:42.632Z,1014.84
2023-09-09T09:00:44.231Z,1014.86
2023-09-09T09:01:42.793Z,1014.87
2023-09-09T09:02:42.899Z,1014.86
2023-09-09T09:03:43.159Z,1014.88
2023-09-09T09:04:43.580Z,1014.86
2023-09-09T09:05:42.751Z,1014.90
2023-09-09T09:06:42.840Z,1014.91
2023-09-09T09:07:42.533Z,1014.92
2023-09-09T09:08:42.525Z,1014.91
2023-09-09T09:09:42.627Z,1014.91
2023-09-09T09:10:42.488Z,1014.92
2023-09-09T09:11:42.450Z,1014.92
2023-09-09T09:12:42.537Z,1014.95
2023-09-09T09:13:43.869Z,1014.94
2023-09-09T09:14:44.677Z,1014.92
2023-09-09T09:15:43.858Z,1014.92
2023-09-09T09:16:44.105Z,1014.91
2023-09-09T09:17:43.931Z,1014.91
2023-09-09T09:18:45.244Z,1014.91
2023-09-09T09:19:43.705Z,1014.84
2023-09-09T09:20:43.817Z,1014.87
2023-09-09T09:21:53.930Z,1014.88
2023-09-09T09:22:42.323Z,1014.91
2023-09-09T09:23:42.290Z,1014.86
2023-09-09T09:24:42.281Z,1014.91
2023-09-09T09:25:42.249Z,1014.90
2023-09-09T09:26:42.271Z,1014.88
2023-09-09T09:27:42.421Z,1014.85
2023-09-09T09:28:42.233Z,1014.89
2023-09-09T09:29:42.313Z,1014.89
2023-09-09T09:30:42.976Z,1014.90
2023-09-09T09:31:42.369Z,1014.91
2023-09-09T09:32:42.268Z,1014.90
2023-09-09T09:33:44.104Z,1014.96
2023-09-09T09:34:42.928Z,1014.91
2023-09-09T09:35:42.361Z,1014.93
2023-09-09T09:36:42.199Z,1014.92
2023-09-09T09:37:42.135Z,1014.93
2023-09-09T09:38:42.181Z,1014.91
2023-09-09T09:39:42.063Z,1014.93
2023-09-09T09:40:42.078Z,1014.95
2023-09-09T09:41:42.330Z,1014.93
2023-09-09T09:42:43.456Z,1014.93
2023-09-09T09:43:42.377Z,1014.95
2023-09-09T09:44:42.028Z,1014.90
2023-09-09T09:45:42.170Z,1014.89
2023-09-09T09:46:42.117Z,1014.89
2023-09-09T09:47:42.097Z,1014.86
2023-09-09T09:48:42.230Z,1014.92
2023-09-09T09:49:41.963Z,1014.89
2023-09-09T09:50:42.290Z,1014.89
2023-09-09T09:51:42.034Z,1014.88
2023-09-09T09:52:41.948Z,1014.87
2023-09-09T09:53:41.885Z,1014.88
2023-09-09T09:54:42.012Z,1014.76
2023-09-09T09:55:41.893Z,1014.75
2023-09-09T09:56:41.855Z,1014.78
2023-09-09T09:57:41.996Z,1014.82
2023-09-09T09:58:41.867Z,1014.78
2023-09-09T09:59:41.977Z,1014.75
2023-09-09T10:00:41.815Z,1014.77
2023-09-09T10:01:41.949Z,1014.75
2023-09-09T10:02:41.799Z,1014.77
2023-09-09T10:03:41.777Z,1014.78
2023-09-09T10:04:41.754Z,1014.76
2023-09-09T10:05:41.947Z,1014.80
2023-09-09T10:06:41.708Z,1014.75
2023-09-09T10:07:41.697Z,1014.77
2023-09-09T10:08:41.765Z,1014.77
2023-09-09T10:09:41.896Z,1014.78
2023-09-09T10:10:41.737Z,1014.79
2023-09-09T10:11:41.670Z,1014.83
2023-09-09T10:12:48.040Z,1014.77
2023-09-09T10:13:45.398Z,1014.78
2023-09-09T10:14:41.684Z,1014.80
2023-09-09T10:15:41.760Z,1014.78
2023-09-09T10:16:42.389Z,1014.80
2023-09-09T10:17:41.617Z,1014.72
2023-09-09T10:18:41.551Z,1014.76
2023-09-09T10:19:41.536Z,1014.73
2023-09-09T10:20:41.553Z,1014.72
2023-09-09T10:21:42.849Z,1014.71
2023-09-09T10:22:41.629Z,1014.72
2023-09-09T10:23:41.496Z,1014.71
2023-09-09T10:24:41.508Z,1014.70
2023-09-09T10:25:41.472Z,1014.70
2023-09-09T10:26:41.460Z,1014.70
2023-09-09T10:27:41.477Z,1014.68
2023-09-09T10:28:41.448Z,1014.67
2023-09-09T10:29:41.447Z,1014.66
2023-09-09T10:30:41.722Z,1014.67
2023-09-09T10:31:41.386Z,1014.70
2023-09-09T10:32:41.392Z,1014.69
2023-09-09T10:33:41.366Z,1014.67
2023-09-09T10:34:41.573Z,1014.67
2023-09-09T10:35:41.407Z,1014.66
2023-09-09T10:36:55.426Z,1014.64
2023-09-09T10:37:42.287Z,1014.62
2023-09-09T10:38:41.295Z,1014.62
2023-09-09T10:39:41.390Z,1014.61
2023-09-09T10:40:41.316Z,1014.63
2023-09-09T10:41:41.327Z,1014.58
2023-09-09T10:42:41.262Z,1014.61
2023-09-09T10:43:41.246Z,1014.58
2023-09-09T10:44:41.222Z,1014.57
2023-09-09T10:45:41.294Z,1014.58
2023-09-09T10:46:41.329Z,1014.58
2023-09-09T10:47:41.233Z,1014.56
2023-09-09T10:48:41.195Z,1014.57
2023-09-09T10:49:41.161Z,1014.54
2023-09-09T10:50:41.235Z,1014.53
2023-09-09T10:51:41.164Z,1014.51
2023-09-09T10:52:41.158Z,1014.45
2023-09-09T10:53:41.400Z,1014.44
2023-09-09T10:54:41.082Z,1014.48
2023-09-09T10:55:41.101Z,1014.49
2023-09-09T10:56:41.034Z,1014.48
2023-09-09T10:57:41.036Z,1014.50
2023-09-09T10:58:41.046Z,1014.50
2023-09-09T10:59:41.121Z,1014.53
2023-09-09T11:00:41.393Z,1014.52
2023-09-09T11:01:41.045Z,1014.53
2023-09-09T11:02:41.055Z,1014.56
2023-09-09T11:03:41.174Z,1014.54
2023-09-09T11:04:41.204Z,1014.55
2023-09-09T11:05:41.062Z,1014.56
2023-09-09T11:06:40.937Z,1014.60
2023-09-09T11:07:40.933Z,1014.58
2023-09-09T11:08:40.898Z,1014.57
2023-09-09T11:09:40.929Z,1014.61
2023-09-09T11:10:40.906Z,1014.58
2023-09-09T11:11:40.868Z,1014.59
2023-09-09T11:12:40.873Z,1014.62
2023-09-09T11:13:40.874Z,1014.58
2023-09-09T11:14:40.975Z,1014.60
2023-09-09T11:15:40.831Z,1014.54
2023-09-09T11:16:40.918Z,1014.57
2023-09-09T11:17:41.040Z,1014.55
2023-09-09T11:18:41.232Z,1014.57
2023-09-09T11:19:40.810Z,1014.55
2023-09-09T11:20:41.570Z,1014.51
2023-09-09T11:21:40.716Z,1014.50
2023-09-09T11:22:41.317Z,1014.50
2023-09-09T11:23:41.018Z,1014.47
2023-09-09T11:24:40.681Z,1014.53
2023-09-09T11:25:40.757Z,1014.51
2023-09-09T11:26:40.793Z,1014.51
2023-09-09T11:27:40.703Z,1014.51
2023-09-09T11:28:40.902Z,1014.51
2023-09-09T11:29:40.680Z,1014.48
2023-09-09T11:30:40.624Z,1014.51
2023-09-09T11:31:40.915Z,1014.52
2023-09-09T11:32:40.996Z,1014.51
2023-09-09T11:33:40.842Z,1014.51
2023-09-09T11:34:40.580Z,1014.54
2023-09-09T11:35:40.671Z,1014.51
2023-09-09T11:36:40.534Z,1014.52
2023-09-09T11:37:40.585Z,1014.53
2023-09-09T11:38:40.490Z,1014.51
2023-09-09T11:39:40.562Z,1014.46
2023-09-09T11:40:40.730Z,1014.48
2023-09-09T11:41:40.557Z,1014.48
2023-09-09T11:42:41.355Z,1014.53
2023-09-09T11:43:42.180Z,1014.47
2023-09-09T11:44:40.589Z,1014.45
2023-09-09T11:45:43.281Z,1014.44
2023-09-09T11:46:40.435Z,1014.50
2023-09-09T11:47:40.396Z,1014.46
2023-09-09T11:48:40.442Z,1014.47
2023-09-09T11:49:40.442Z,1014.48
2023-09-09T11:50:40.487Z,1014.46
2023-09-09T11:51:40.356Z,1014.49
2023-09-09T11:52:40.363Z,1014.43
2023-09-09T11:53:40.760Z,1014.46
2023-09-09T11:54:40.340Z,1014.48
2023-09-09T11:55:40.296Z,1014.47
2023-09-09T11:56:40.317Z,1014.51
2023-09-09T11:57:40.264Z,1014.47
2023-09-09T11:58:40.264Z,1014.50
2023-09-09T11:59:40.256Z,1014.51
2023-09-09T12:00:40.233Z,1014.46
2023-09-09T12:01:40.284Z,1014.46
2023-09-09T12:02:40.318Z,1014.44
2023-09-09T12:03:41.157Z,1014.48
2023-09-09T12:04:40.274Z,1014.50
2023-09-09T12:05:40.216Z,1014.47